sensor_id;sensor_type;location;lat;lon;timestamp;P1;durP1;ratioP1;P2;durP2;ratioP2
20397;SDS011;10358;49.590;11.030;2024-03-08T00:02:06;33.20;;;16.47;;
20397;SDS011;10358;49.590;11.030;2024-03-08T00:04:32;34.73;;;17.37;;
20397;SDS011;10358;49.590;11.030;2024-03-08T00:06:57;33.13;;;17.00;;
20397;SDS011;10358;49.590;11.030;2024-03-08T00:09:23;31.50;;;16.17;;
20397;SDS011;10358;49.590;11.030;2024-03-08T00:11:49;30.00;;;16.13;;
20397;SDS011;10358;49.590;11.030;2024-03-08T00:14:15;31.30;;;17.00;;
20397;SDS011;10358;49.590;11.030;2024-03-08T00:16:41;35.43;;;17.47;;
20397;SDS011;10358;49.590;11.030;2024-03-08T00:19:08;38.90;;;17.97;;
20397;SDS011;10358;49.590;11.030;2024-03-08T00:21:34;35.80;;;16.87;;
20397;SDS011;10358;49.590;11.030;2024-03-08T00:24:00;32.67;;;17.30;;
20397;SDS011;10358;49.590;11.030;2024-03-08T00:26:26;33.47;;;16.63;;
20397;SDS011;10358;49.590;11.030;2024-03-08T00:28:51;32.93;;;17.03;;
20397;SDS011;10358;49.590;11.030;2024-03-08T00:31:18;35.73;;;16.70;;
20397;SDS011;10358;49.590;11.030;2024-03-08T00:33:45;34.67;;;17.43;;
20397;SDS011;10358;49.590;11.030;2024-03-08T00:36:10;35.87;;;17.20;;
20397;SDS011;10358;49.590;11.030;2024-03-08T00:38:36;33.00;;;17.43;;
20397;SDS011;10358;49.590;11.030;2024-03-08T00:41:02;31.83;;;17.63;;
20397;SDS011;10358;49.590;11.030;2024-03-08T00:43:27;33.40;;;17.07;;
20397;SDS011;10358;49.590;11.030;2024-03-08T00:45:55;32.93;;;16.80;;
20397;SDS011;10358;49.590;11.030;2024-03-08T00:48:21;37.00;;;17.67;;
20397;SDS011;10358;49.590;11.030;2024-03-08T00:50:46;32.33;;;16.90;;
20397;SDS011;10358;49.590;11.030;2024-03-08T00:53:12;37.20;;;18.30;;
20397;SDS011;10358;49.590;11.030;2024-03-08T00:55:38;31.97;;;16.57;;
20397;SDS011;10358;49.590;11.030;2024-03-08T00:58:04;34.40;;;16.97;;
20397;SDS011;10358;49.590;11.030;2024-03-08T01:00:30;30.73;;;17.20;;
20397;SDS011;10358;49.590;11.030;2024-03-08T01:02:57;32.30;;;16.23;;
20397;SDS011;10358;49.590;11.030;2024-03-08T01:05:23;37.63;;;17.50;;
20397;SDS011;10358;49.590;11.030;2024-03-08T01:07:49;33.07;;;17.27;;
20397;SDS011;10358;49.590;11.030;2024-03-08T01:10:15;34.33;;;17.27;;
20397;SDS011;10358;49.590;11.030;2024-03-08T01:12:41;34.67;;;17.00;;
20397;SDS011;10358;49.590;11.030;2024-03-08T01:15:10;35.60;;;16.93;;
20397;SDS011;10358;49.590;11.030;2024-03-08T01:17:36;36.17;;;17.50;;
20397;SDS011;10358;49.590;11.030;2024-03-08T01:20:03;35.43;;;17.47;;
20397;SDS011;10358;49.590;11.030;2024-03-08T01:22:29;35.20;;;18.00;;
20397;SDS011;10358;49.590;11.030;2024-03-08T01:24:55;36.13;;;18.07;;
20397;SDS011;10358;49.590;11.030;2024-03-08T01:27:21;37.33;;;18.33;;
20397;SDS011;10358;49.590;11.030;2024-03-08T01:29:47;33.37;;;17.23;;
20397;SDS011;10358;49.590;11.030;2024-03-08T01:32:12;34.40;;;17.70;;
20397;SDS011;10358;49.590;11.030;2024-03-08T01:34:38;40.93;;;18.00;;
20397;SDS011;10358;49.590;11.030;2024-03-08T01:37:04;35.23;;;17.70;;
20397;SDS011;10358;49.590;11.030;2024-03-08T01:39:29;36.93;;;17.10;;
20397;SDS011;10358;49.590;11.030;2024-03-08T01:41:55;33.43;;;17.13;;
20397;SDS011;10358;49.590;11.030;2024-03-08T01:44:20;33.27;;;17.20;;
20397;SDS011;10358;49.590;11.030;2024-03-08T01:46:46;28.73;;;16.37;;
20397;SDS011;10358;49.590;11.030;2024-03-08T01:49:14;33.27;;;17.20;;
20397;SDS011;10358;49.590;11.030;2024-03-08T01:51:43;37.70;;;17.73;;
20397;SDS011;10358;49.590;11.030;2024-03-08T01:54:08;34.37;;;17.37;;
20397;SDS011;10358;49.590;11.030;2024-03-08T01:56:35;36.57;;;18.60;;
20397;SDS011;10358;49.590;11.030;2024-03-08T01:59:02;36.50;;;17.87;;
20397;SDS011;10358;49.590;11.030;2024-03-08T02:01:28;36.23;;;17.80;;
20397;SDS011;10358;49.590;11.030;2024-03-08T02:03:54;35.30;;;18.17;;
20397;SDS011;10358;49.590;11.030;2024-03-08T02:06:20;38.90;;;17.97;;
20397;SDS011;10358;49.590;11.030;2024-03-08T02:08:45;36.17;;;18.30;;
20397;SDS011;10358;49.590;11.030;2024-03-08T02:11:11;37.07;;;17.90;;
20397;SDS011;10358;49.590;11.030;2024-03-08T02:13:37;34.93;;;18.07;;
20397;SDS011;10358;49.590;11.030;2024-03-08T02:16:03;37.10;;;17.70;;
20397;SDS011;10358;49.590;11.030;2024-03-08T02:18:32;35.43;;;17.60;;
20397;SDS011;10358;49.590;11.030;2024-03-08T02:20:59;38.50;;;18.07;;
20397;SDS011;10358;49.590;11.030;2024-03-08T02:23:27;39.67;;;18.30;;
20397;SDS011;10358;49.590;11.030;2024-03-08T02:25:54;33.07;;;17.20;;
20397;SDS011;10358;49.590;11.030;2024-03-08T02:28:21;36.00;;;18.07;;
20397;SDS011;10358;49.590;11.030;2024-03-08T02:30:48;32.93;;;17.53;;
20397;SDS011;10358;49.590;11.030;2024-03-08T02:33:16;38.40;;;18.30;;
20397;SDS011;10358;49.590;11.030;2024-03-08T02:35:43;34.70;;;18.03;;
20397;SDS011;10358;49.590;11.030;2024-03-08T02:38:12;37.10;;;17.07;;
20397;SDS011;10358;49.590;11.030;2024-03-08T02:40:41;34.97;;;17.77;;
20397;SDS011;10358;49.590;11.030;2024-03-08T02:43:13;35.13;;;17.27;;
20397;SDS011;10358;49.590;11.030;2024-03-08T02:45:40;37.83;;;17.90;;
20397;SDS011;10358;49.590;11.030;2024-03-08T02:48:07;37.47;;;18.67;;
20397;SDS011;10358;49.590;11.030;2024-03-08T02:50:35;32.60;;;17.07;;
20397;SDS011;10358;49.590;11.030;2024-03-08T02:53:01;37.27;;;18.63;;
20397;SDS011;10358;49.590;11.030;2024-03-08T02:55:27;37.50;;;19.03;;
20397;SDS011;10358;49.590;11.030;2024-03-08T02:57:53;36.63;;;19.00;;
20397;SDS011;10358;49.590;11.030;2024-03-08T03:00:21;38.43;;;18.60;;
20397;SDS011;10358;49.590;11.030;2024-03-08T03:02:48;40.23;;;18.47;;
20397;SDS011;10358;49.590;11.030;2024-03-08T03:05:18;35.37;;;18.30;;
20397;SDS011;10358;49.590;11.030;2024-03-08T03:07:48;37.63;;;18.23;;
20397;SDS011;10358;49.590;11.030;2024-03-08T03:10:16;34.03;;;18.00;;
20397;SDS011;10358;49.590;11.030;2024-03-08T03:12:42;35.17;;;17.83;;
20397;SDS011;10358;49.590;11.030;2024-03-08T03:15:08;37.00;;;18.37;;
20397;SDS011;10358;49.590;11.030;2024-03-08T03:17:35;34.83;;;18.33;;
20397;SDS011;10358;49.590;11.030;2024-03-08T03:20:00;35.30;;;18.87;;
20397;SDS011;10358;49.590;11.030;2024-03-08T03:22:34;45.67;;;18.37;;
20397;SDS011;10358;49.590;11.030;2024-03-08T03:24:59;36.27;;;18.30;;
20397;SDS011;10358;49.590;11.030;2024-03-08T03:27:26;38.27;;;19.17;;
20397;SDS011;10358;49.590;11.030;2024-03-08T03:29:51;37.77;;;18.93;;
20397;SDS011;10358;49.590;11.030;2024-03-08T03:32:17;37.37;;;18.90;;
20397;SDS011;10358;49.590;11.030;2024-03-08T03:34:43;36.17;;;18.23;;
20397;SDS011;10358;49.590;11.030;2024-03-08T03:37:09;36.67;;;18.27;;
20397;SDS011;10358;49.590;11.030;2024-03-08T03:39:37;35.60;;;18.23;;
20397;SDS011;10358;49.590;11.030;2024-03-08T03:42:18;37.33;;;18.57;;
20397;SDS011;10358;49.590;11.030;2024-03-08T03:44:48;34.60;;;17.93;;
20397;SDS011;10358;49.590;11.030;2024-03-08T03:47:14;36.23;;;18.67;;
20397;SDS011;10358;49.590;11.030;2024-03-08T03:49:43;37.63;;;18.67;;
20397;SDS011;10358;49.590;11.030;2024-03-08T03:52:08;35.07;;;18.93;;
20397;SDS011;10358;49.590;11.030;2024-03-08T03:54:35;38.00;;;19.17;;
20397;SDS011;10358;49.590;11.030;2024-03-08T03:57:01;36.20;;;18.83;;
20397;SDS011;10358;49.590;11.030;2024-03-08T03:59:27;41.97;;;20.47;;
20397;SDS011;10358;49.590;11.030;2024-03-08T04:01:53;36.67;;;19.27;;
20397;SDS011;10358;49.590;11.030;2024-03-08T04:04:19;40.07;;;19.37;;
20397;SDS011;10358;49.590;11.030;2024-03-08T04:06:49;38.83;;;18.77;;
20397;SDS011;10358;49.590;11.030;2024-03-08T04:09:16;45.00;;;19.93;;
20397;SDS011;10358;49.590;11.030;2024-03-08T04:11:44;37.83;;;20.00;;
20397;SDS011;10358;49.590;11.030;2024-03-08T04:14:09;36.33;;;18.67;;
20397;SDS011;10358;49.590;11.030;2024-03-08T04:16:37;39.50;;;19.87;;
20397;SDS011;10358;49.590;11.030;2024-03-08T04:19:02;41.33;;;20.07;;
20397;SDS011;10358;49.590;11.030;2024-03-08T04:21:31;38.30;;;20.00;;
20397;SDS011;10358;49.590;11.030;2024-03-08T04:23:56;40.80;;;20.27;;
20397;SDS011;10358;49.590;11.030;2024-03-08T04:26:22;39.97;;;19.93;;
20397;SDS011;10358;49.590;11.030;2024-03-08T04:28:47;40.23;;;20.23;;
20397;SDS011;10358;49.590;11.030;2024-03-08T04:31:13;42.77;;;21.13;;
20397;SDS011;10358;49.590;11.030;2024-03-08T04:33:40;41.87;;;20.57;;
20397;SDS011;10358;49.590;11.030;2024-03-08T04:36:06;40.90;;;20.17;;
20397;SDS011;10358;49.590;11.030;2024-03-08T04:38:32;37.97;;;19.47;;
20397;SDS011;10358;49.590;11.030;2024-03-08T04:40:58;44.03;;;20.20;;
20397;SDS011;10358;49.590;11.030;2024-03-08T04:43:24;42.70;;;20.03;;
20397;SDS011;10358;49.590;11.030;2024-03-08T04:45:51;40.83;;;20.03;;
20397;SDS011;10358;49.590;11.030;2024-03-08T04:48:18;39.17;;;20.30;;
20397;SDS011;10358;49.590;11.030;2024-03-08T04:50:44;43.33;;;21.80;;
20397;SDS011;10358;49.590;11.030;2024-03-08T04:53:11;44.87;;;20.83;;
20397;SDS011;10358;49.590;11.030;2024-03-08T04:55:37;39.73;;;20.93;;
20397;SDS011;10358;49.590;11.030;2024-03-08T04:58:03;41.77;;;20.60;;
20397;SDS011;10358;49.590;11.030;2024-03-08T05:00:31;42.93;;;20.77;;
20397;SDS011;10358;49.590;11.030;2024-03-08T05:02:58;47.10;;;21.67;;
20397;SDS011;10358;49.590;11.030;2024-03-08T05:05:23;38.90;;;21.83;;
20397;SDS011;10358;49.590;11.030;2024-03-08T05:07:49;42.90;;;21.63;;
20397;SDS011;10358;49.590;11.030;2024-03-08T05:10:15;42.37;;;21.30;;
20397;SDS011;10358;49.590;11.030;2024-03-08T05:12:42;44.17;;;21.53;;
20397;SDS011;10358;49.590;11.030;2024-03-08T05:15:10;43.10;;;21.40;;
20397;SDS011;10358;49.590;11.030;2024-03-08T05:17:35;41.90;;;21.33;;
20397;SDS011;10358;49.590;11.030;2024-03-08T05:20:01;40.17;;;20.30;;
20397;SDS011;10358;49.590;11.030;2024-03-08T05:22:27;46.37;;;22.17;;
20397;SDS011;10358;49.590;11.030;2024-03-08T05:24:53;39.67;;;20.23;;
20397;SDS011;10358;49.590;11.030;2024-03-08T05:27:18;45.47;;;22.23;;
20397;SDS011;10358;49.590;11.030;2024-03-08T05:29:44;42.63;;;21.60;;
20397;SDS011;10358;49.590;11.030;2024-03-08T05:32:11;48.23;;;21.77;;
20397;SDS011;10358;49.590;11.030;2024-03-08T05:34:37;43.63;;;21.33;;
20397;SDS011;10358;49.590;11.030;2024-03-08T05:37:02;43.73;;;21.37;;
20397;SDS011;10358;49.590;11.030;2024-03-08T05:39:28;43.23;;;20.90;;
20397;SDS011;10358;49.590;11.030;2024-03-08T05:41:54;41.87;;;21.67;;
20397;SDS011;10358;49.590;11.030;2024-03-08T05:44:20;48.63;;;21.97;;
20397;SDS011;10358;49.590;11.030;2024-03-08T05:46:45;44.23;;;21.30;;
20397;SDS011;10358;49.590;11.030;2024-03-08T05:49:13;43.03;;;21.33;;
20397;SDS011;10358;49.590;11.030;2024-03-08T05:51:39;45.73;;;22.33;;
20397;SDS011;10358;49.590;11.030;2024-03-08T05:54:10;47.93;;;22.87;;
20397;SDS011;10358;49.590;11.030;2024-03-08T05:56:36;46.87;;;22.93;;
20397;SDS011;10358;49.590;11.030;2024-03-08T05:59:03;41.70;;;21.00;;
20397;SDS011;10358;49.590;11.030;2024-03-08T06:01:29;44.87;;;22.70;;
20397;SDS011;10358;49.590;11.030;2024-03-08T06:03:57;44.80;;;21.43;;
20397;SDS011;10358;49.590;11.030;2024-03-08T06:06:23;45.83;;;21.80;;
20397;SDS011;10358;49.590;11.030;2024-03-08T06:08:49;42.10;;;22.40;;
20397;SDS011;10358;49.590;11.030;2024-03-08T06:11:16;46.23;;;21.90;;
20397;SDS011;10358;49.590;11.030;2024-03-08T06:13:46;45.33;;;22.30;;
20397;SDS011;10358;49.590;11.030;2024-03-08T06:16:11;44.23;;;22.67;;
20397;SDS011;10358;49.590;11.030;2024-03-08T06:18:37;48.93;;;23.33;;
20397;SDS011;10358;49.590;11.030;2024-03-08T06:21:04;47.03;;;22.83;;
20397;SDS011;10358;49.590;11.030;2024-03-08T06:23:34;46.87;;;22.63;;
20397;SDS011;10358;49.590;11.030;2024-03-08T06:26:23;53.00;;;22.73;;
20397;SDS011;10358;49.590;11.030;2024-03-08T06:28:55;47.63;;;23.60;;
20397;SDS011;10358;49.590;11.030;2024-03-08T06:31:22;49.43;;;23.20;;
20397;SDS011;10358;49.590;11.030;2024-03-08T06:33:47;44.20;;;22.27;;
20397;SDS011;10358;49.590;11.030;2024-03-08T06:36:19;45.93;;;23.03;;
20397;SDS011;10358;49.590;11.030;2024-03-08T06:38:46;49.63;;;22.87;;
20397;SDS011;10358;49.590;11.030;2024-03-08T06:41:12;48.60;;;24.50;;
20397;SDS011;10358;49.590;11.030;2024-03-08T06:43:42;46.50;;;23.40;;
20397;SDS011;10358;49.590;11.030;2024-03-08T06:46:08;49.70;;;23.73;;
20397;SDS011;10358;49.590;11.030;2024-03-08T06:48:34;49.80;;;24.30;;
20397;SDS011;10358;49.590;11.030;2024-03-08T06:51:02;49.47;;;22.43;;
20397;SDS011;10358;49.590;11.030;2024-03-08T06:53:27;50.77;;;25.20;;
20397;SDS011;10358;49.590;11.030;2024-03-08T06:55:53;48.73;;;22.87;;
20397;SDS011;10358;49.590;11.030;2024-03-08T06:58:20;49.20;;;23.63;;
20397;SDS011;10358;49.590;11.030;2024-03-08T07:00:45;48.33;;;23.57;;
20397;SDS011;10358;49.590;11.030;2024-03-08T07:03:11;49.13;;;23.43;;
20397;SDS011;10358;49.590;11.030;2024-03-08T07:05:42;50.90;;;24.17;;
20397;SDS011;10358;49.590;11.030;2024-03-08T07:08:07;50.60;;;23.80;;
20397;SDS011;10358;49.590;11.030;2024-03-08T07:10:34;45.83;;;23.27;;
20397;SDS011;10358;49.590;11.030;2024-03-08T07:13:02;50.43;;;24.60;;
20397;SDS011;10358;49.590;11.030;2024-03-08T07:15:27;47.37;;;24.60;;
20397;SDS011;10358;49.590;11.030;2024-03-08T07:17:53;42.77;;;22.37;;
20397;SDS011;10358;49.590;11.030;2024-03-08T07:20:19;48.60;;;23.57;;
20397;SDS011;10358;49.590;11.030;2024-03-08T07:22:46;49.73;;;23.13;;
20397;SDS011;10358;49.590;11.030;2024-03-08T07:25:12;53.37;;;24.13;;
20397;SDS011;10358;49.590;11.030;2024-03-08T07:27:49;46.93;;;22.60;;
20397;SDS011;10358;49.590;11.030;2024-03-08T07:30:15;45.20;;;21.90;;
20397;SDS011;10358;49.590;11.030;2024-03-08T07:33:01;48.97;;;23.07;;
20397;SDS011;10358;49.590;11.030;2024-03-08T07:35:27;50.07;;;23.00;;
20397;SDS011;10358;49.590;11.030;2024-03-08T07:37:53;43.23;;;21.87;;
20397;SDS011;10358;49.590;11.030;2024-03-08T07:40:22;47.57;;;22.63;;
20397;SDS011;10358;49.590;11.030;2024-03-08T07:42:48;42.63;;;21.43;;
20397;SDS011;10358;49.590;11.030;2024-03-08T07:45:15;45.13;;;22.17;;
20397;SDS011;10358;49.590;11.030;2024-03-08T07:47:41;46.00;;;21.53;;
20397;SDS011;10358;49.590;11.030;2024-03-08T07:50:07;46.60;;;23.93;;
20397;SDS011;10358;49.590;11.030;2024-03-08T07:52:33;48.27;;;21.93;;
20397;SDS011;10358;49.590;11.030;2024-03-08T07:54:59;42.73;;;20.90;;
20397;SDS011;10358;49.590;11.030;2024-03-08T07:57:26;42.97;;;20.87;;
20397;SDS011;10358;49.590;11.030;2024-03-08T07:59:52;40.00;;;20.60;;
20397;SDS011;10358;49.590;11.030;2024-03-08T08:02:17;44.20;;;22.37;;
20397;SDS011;10358;49.590;11.030;2024-03-08T08:04:43;39.53;;;20.57;;
20397;SDS011;10358;49.590;11.030;2024-03-08T08:07:10;42.90;;;21.07;;
20397;SDS011;10358;49.590;11.030;2024-03-08T08:09:36;38.40;;;19.87;;
20397;SDS011;10358;49.590;11.030;2024-03-08T08:12:02;38.03;;;19.73;;
20397;SDS011;10358;49.590;11.030;2024-03-08T08:14:28;40.57;;;20.77;;
20397;SDS011;10358;49.590;11.030;2024-03-08T08:16:56;42.70;;;21.57;;
20397;SDS011;10358;49.590;11.030;2024-03-08T08:19:23;41.50;;;19.87;;
20397;SDS011;10358;49.590;11.030;2024-03-08T08:21:51;37.07;;;19.77;;
20397;SDS011;10358;49.590;11.030;2024-03-08T08:24:16;38.97;;;19.93;;
20397;SDS011;10358;49.590;11.030;2024-03-08T08:26:42;37.30;;;19.93;;
20397;SDS011;10358;49.590;11.030;2024-03-08T08:29:09;41.77;;;20.27;;
20397;SDS011;10358;49.590;11.030;2024-03-08T08:31:35;38.27;;;20.27;;
20397;SDS011;10358;49.590;11.030;2024-03-08T08:34:01;37.63;;;19.90;;
20397;SDS011;10358;49.590;11.030;2024-03-08T08:36:28;40.23;;;19.60;;
20397;SDS011;10358;49.590;11.030;2024-03-08T08:38:54;38.30;;;18.67;;
20397;SDS011;10358;49.590;11.030;2024-03-08T08:41:21;37.60;;;19.13;;
20397;SDS011;10358;49.590;11.030;2024-03-08T08:43:47;37.63;;;19.63;;
20397;SDS011;10358;49.590;11.030;2024-03-08T08:46:16;35.07;;;18.87;;
20397;SDS011;10358;49.590;11.030;2024-03-08T08:48:42;39.17;;;19.13;;
20397;SDS011;10358;49.590;11.030;2024-03-08T08:51:11;37.10;;;18.53;;
20397;SDS011;10358;49.590;11.030;2024-03-08T08:53:46;35.43;;;18.07;;
20397;SDS011;10358;49.590;11.030;2024-03-08T08:56:13;32.97;;;17.57;;
20397;SDS011;10358;49.590;11.030;2024-03-08T08:58:39;30.73;;;17.23;;
20397;SDS011;10358;49.590;11.030;2024-03-08T09:01:06;33.20;;;17.33;;
20397;SDS011;10358;49.590;11.030;2024-03-08T09:03:32;33.17;;;16.33;;
20397;SDS011;10358;49.590;11.030;2024-03-08T09:05:59;29.20;;;15.77;;
20397;SDS011;10358;49.590;11.030;2024-03-08T09:08:25;31.23;;;15.80;;
20397;SDS011;10358;49.590;11.030;2024-03-08T09:10:51;31.20;;;16.23;;
20397;SDS011;10358;49.590;11.030;2024-03-08T09:13:16;28.17;;;15.53;;
20397;SDS011;10358;49.590;11.030;2024-03-08T09:15:43;29.80;;;15.87;;
20397;SDS011;10358;49.590;11.030;2024-03-08T09:18:10;31.00;;;16.17;;
20397;SDS011;10358;49.590;11.030;2024-03-08T09:20:37;29.67;;;15.30;;
20397;SDS011;10358;49.590;11.030;2024-03-08T09:23:03;29.73;;;15.70;;
20397;SDS011;10358;49.590;11.030;2024-03-08T09:25:29;33.67;;;15.67;;
20397;SDS011;10358;49.590;11.030;2024-03-08T09:27:54;26.97;;;14.63;;
20397;SDS011;10358;49.590;11.030;2024-03-08T09:30:20;28.07;;;15.07;;
20397;SDS011;10358;49.590;11.030;2024-03-08T09:32:46;28.23;;;14.70;;
20397;SDS011;10358;49.590;11.030;2024-03-08T09:35:12;30.30;;;15.03;;
20397;SDS011;10358;49.590;11.030;2024-03-08T09:37:40;28.77;;;15.73;;
20397;SDS011;10358;49.590;11.030;2024-03-08T09:40:05;28.27;;;15.67;;
20397;SDS011;10358;49.590;11.030;2024-03-08T09:42:35;27.23;;;14.73;;
20397;SDS011;10358;49.590;11.030;2024-03-08T09:45:10;26.53;;;14.80;;
20397;SDS011;10358;49.590;11.030;2024-03-08T09:47:37;29.23;;;15.20;;
20397;SDS011;10358;49.590;11.030;2024-03-08T09:50:06;27.73;;;15.10;;
20397;SDS011;10358;49.590;11.030;2024-03-08T09:52:37;28.37;;;15.57;;
20397;SDS011;10358;49.590;11.030;2024-03-08T09:55:09;30.07;;;15.83;;
20397;SDS011;10358;49.590;11.030;2024-03-08T09:57:39;26.83;;;14.77;;
20397;SDS011;10358;49.590;11.030;2024-03-08T10:00:05;27.97;;;14.27;;
20397;SDS011;10358;49.590;11.030;2024-03-08T10:02:46;27.97;;;15.50;;
20397;SDS011;10358;49.590;11.030;2024-03-08T10:05:12;23.63;;;14.43;;
20397;SDS011;10358;49.590;11.030;2024-03-08T10:07:39;28.57;;;14.63;;
20397;SDS011;10358;49.590;11.030;2024-03-08T10:10:04;25.47;;;14.83;;
20397;SDS011;10358;49.590;11.030;2024-03-08T10:12:30;27.70;;;14.03;;
20397;SDS011;10358;49.590;11.030;2024-03-08T10:14:58;32.57;;;15.33;;
20397;SDS011;10358;49.590;11.030;2024-03-08T10:17:24;27.13;;;14.50;;
20397;SDS011;10358;49.590;11.030;2024-03-08T10:19:50;26.67;;;14.90;;
20397;SDS011;10358;49.590;11.030;2024-03-08T10:22:19;27.53;;;15.40;;
20397;SDS011;10358;49.590;11.030;2024-03-08T10:24:48;22.83;;;13.70;;
20397;SDS011;10358;49.590;11.030;2024-03-08T10:27:13;25.57;;;13.97;;
20397;SDS011;10358;49.590;11.030;2024-03-08T10:29:43;27.30;;;14.60;;
20397;SDS011;10358;49.590;11.030;2024-03-08T10:32:12;25.90;;;13.90;;
20397;SDS011;10358;49.590;11.030;2024-03-08T10:34:38;27.10;;;14.03;;
20397;SDS011;10358;49.590;11.030;2024-03-08T10:37:06;25.93;;;14.03;;
20397;SDS011;10358;49.590;11.030;2024-03-08T10:39:37;24.70;;;13.50;;
20397;SDS011;10358;49.590;11.030;2024-03-08T10:42:04;23.43;;;12.77;;
20397;SDS011;10358;49.590;11.030;2024-03-08T10:44:48;27.37;;;13.60;;
20397;SDS011;10358;49.590;11.030;2024-03-08T10:47:29;20.37;;;11.70;;
20397;SDS011;10358;49.590;11.030;2024-03-08T10:50:11;20.67;;;12.07;;
20397;SDS011;10358;49.590;11.030;2024-03-08T10:52:50;24.10;;;13.00;;
20397;SDS011;10358;49.590;11.030;2024-03-08T10:55:17;24.90;;;12.70;;
20397;SDS011;10358;49.590;11.030;2024-03-08T10:57:45;20.77;;;11.70;;
20397;SDS011;10358;49.590;11.030;2024-03-08T11:00:17;24.77;;;12.67;;
20397;SDS011;10358;49.590;11.030;2024-03-08T11:02:52;20.93;;;11.23;;
20397;SDS011;10358;49.590;11.030;2024-03-08T11:05:31;20.13;;;11.23;;
20397;SDS011;10358;49.590;11.030;2024-03-08T11:08:00;23.10;;;11.70;;
20397;SDS011;10358;49.590;11.030;2024-03-08T11:10:28;20.63;;;11.43;;
20397;SDS011;10358;49.590;11.030;2024-03-08T11:12:55;21.67;;;11.13;;
20397;SDS011;10358;49.590;11.030;2024-03-08T11:15:22;20.17;;;11.87;;
20397;SDS011;10358;49.590;11.030;2024-03-08T11:17:50;21.23;;;12.13;;
20397;SDS011;10358;49.590;11.030;2024-03-08T11:20:16;23.37;;;11.60;;
20397;SDS011;10358;49.590;11.030;2024-03-08T11:28:10;22.63;;;11.57;;
20397;SDS011;10358;49.590;11.030;2024-03-08T11:30:41;24.47;;;11.33;;
20397;SDS011;10358;49.590;11.030;2024-03-08T11:33:13;21.57;;;11.27;;
20397;SDS011;10358;49.590;11.030;2024-03-08T11:35:40;20.17;;;10.93;;
20397;SDS011;10358;49.590;11.030;2024-03-08T11:38:08;17.60;;;10.77;;
20397;SDS011;10358;49.590;11.030;2024-03-08T11:40:34;19.63;;;10.60;;
20397;SDS011;10358;49.590;11.030;2024-03-08T11:43:00;18.93;;;10.53;;
20397;SDS011;10358;49.590;11.030;2024-03-08T11:45:32;18.60;;;10.67;;
20397;SDS011;10358;49.590;11.030;2024-03-08T11:48:01;18.70;;;10.67;;
20397;SDS011;10358;49.590;11.030;2024-03-08T11:50:29;18.93;;;9.67;;
20397;SDS011;10358;49.590;11.030;2024-03-08T11:53:05;15.57;;;9.13;;
20397;SDS011;10358;49.590;11.030;2024-03-08T11:55:31;17.57;;;9.90;;
20397;SDS011;10358;49.590;11.030;2024-03-08T11:58:03;17.80;;;10.53;;
20397;SDS011;10358;49.590;11.030;2024-03-08T12:00:30;15.67;;;9.30;;
20397;SDS011;10358;49.590;11.030;2024-03-08T12:03:07;19.07;;;10.37;;
20397;SDS011;10358;49.590;11.030;2024-03-08T12:05:34;16.67;;;9.93;;
20397;SDS011;10358;49.590;11.030;2024-03-08T12:08:01;20.00;;;10.60;;
20397;SDS011;10358;49.590;11.030;2024-03-08T12:10:28;16.10;;;9.60;;
20397;SDS011;10358;49.590;11.030;2024-03-08T12:12:55;17.40;;;10.17;;
20397;SDS011;10358;49.590;11.030;2024-03-08T12:15:24;18.37;;;10.07;;
20397;SDS011;10358;49.590;11.030;2024-03-08T12:17:52;19.93;;;10.60;;
20397;SDS011;10358;49.590;11.030;2024-03-08T12:20:24;18.00;;;10.07;;
20397;SDS011;10358;49.590;11.030;2024-03-08T12:22:51;17.40;;;9.80;;
20397;SDS011;10358;49.590;11.030;2024-03-08T12:25:18;16.97;;;9.90;;
20397;SDS011;10358;49.590;11.030;2024-03-08T12:27:46;21.10;;;10.83;;
20397;SDS011;10358;49.590;11.030;2024-03-08T12:30:23;16.23;;;9.67;;
20397;SDS011;10358;49.590;11.030;2024-03-08T12:32:54;17.97;;;10.13;;
20397;SDS011;10358;49.590;11.030;2024-03-08T12:35:24;18.33;;;10.93;;
20397;SDS011;10358;49.590;11.030;2024-03-08T12:37:52;18.27;;;10.47;;
20397;SDS011;10358;49.590;11.030;2024-03-08T12:40:24;18.10;;;9.87;;
20397;SDS011;10358;49.590;11.030;2024-03-08T12:42:51;17.90;;;9.77;;
20397;SDS011;10358;49.590;11.030;2024-03-08T12:45:17;14.60;;;9.20;;
20397;SDS011;10358;49.590;11.030;2024-03-08T12:47:43;17.00;;;9.67;;
20397;SDS011;10358;49.590;11.030;2024-03-08T12:50:09;15.13;;;9.00;;
20397;SDS011;10358;49.590;11.030;2024-03-08T12:52:35;18.13;;;9.70;;
20397;SDS011;10358;49.590;11.030;2024-03-08T12:55:01;16.57;;;10.30;;
20397;SDS011;10358;49.590;11.030;2024-03-08T12:57:27;16.73;;;9.63;;
20397;SDS011;10358;49.590;11.030;2024-03-08T12:59:53;16.37;;;9.57;;
20397;SDS011;10358;49.590;11.030;2024-03-08T13:02:19;15.53;;;8.60;;
20397;SDS011;10358;49.590;11.030;2024-03-08T13:04:46;19.07;;;9.43;;
20397;SDS011;10358;49.590;11.030;2024-03-08T13:07:20;16.13;;;8.80;;
20397;SDS011;10358;49.590;11.030;2024-03-08T13:09:48;16.90;;;9.70;;
20397;SDS011;10358;49.590;11.030;2024-03-08T13:12:14;19.93;;;9.80;;
20397;SDS011;10358;49.590;11.030;2024-03-08T13:14:40;16.27;;;9.67;;
20397;SDS011;10358;49.590;11.030;2024-03-08T13:17:07;15.17;;;8.83;;
20397;SDS011;10358;49.590;11.030;2024-03-08T13:19:37;17.27;;;9.33;;
20397;SDS011;10358;49.590;11.030;2024-03-08T13:22:07;13.50;;;8.07;;
20397;SDS011;10358;49.590;11.030;2024-03-08T13:24:44;15.03;;;7.93;;
20397;SDS011;10358;49.590;11.030;2024-03-08T13:27:10;13.20;;;7.87;;
20397;SDS011;10358;49.590;11.030;2024-03-08T13:29:47;16.20;;;8.23;;
20397;SDS011;10358;49.590;11.030;2024-03-08T13:32:17;14.30;;;7.47;;
20397;SDS011;10358;49.590;11.030;2024-03-08T13:34:45;13.82;;;8.25;;
20397;SDS011;10358;49.590;11.030;2024-03-08T13:37:19;13.40;;;7.80;;
20397;SDS011;10358;49.590;11.030;2024-03-08T13:39:44;12.53;;;7.77;;
20397;SDS011;10358;49.590;11.030;2024-03-08T13:42:11;11.75;;;7.60;;
20397;SDS011;10358;49.590;11.030;2024-03-08T13:44:47;13.33;;;7.37;;
20397;SDS011;10358;49.590;11.030;2024-03-08T13:47:19;12.05;;;7.13;;
20397;SDS011;10358;49.590;11.030;2024-03-08T13:49:45;13.10;;;7.70;;
20397;SDS011;10358;49.590;11.030;2024-03-08T13:52:11;11.70;;;7.53;;
20397;SDS011;10358;49.590;11.030;2024-03-08T13:54:40;13.60;;;6.82;;
20397;SDS011;10358;49.590;11.030;2024-03-08T13:57:06;11.00;;;6.70;;
20397;SDS011;10358;49.590;11.030;2024-03-08T13:59:32;11.13;;;6.78;;
20397;SDS011;10358;49.590;11.030;2024-03-08T14:01:59;10.98;;;7.00;;
20397;SDS011;10358;49.590;11.030;2024-03-08T14:04:28;12.60;;;7.35;;
20397;SDS011;10358;49.590;11.030;2024-03-08T14:06:54;11.02;;;6.95;;
20397;SDS011;10358;49.590;11.030;2024-03-08T14:09:25;13.35;;;7.22;;
20397;SDS011;10358;49.590;11.030;2024-03-08T14:11:57;11.23;;;7.70;;
20397;SDS011;10358;49.590;11.030;2024-03-08T14:14:23;10.95;;;6.97;;
20397;SDS011;10358;49.590;11.030;2024-03-08T14:16:49;12.23;;;7.65;;
20397;SDS011;10358;49.590;11.030;2024-03-08T14:19:17;12.02;;;7.80;;